Time;durP1;ratioP1;P1;durP2;ratioP2;P2;SDS_P1;SDS_P2;PMS_P1;PMS_P2;Temp;Humidity;BMP_temperature;BMP_pressure;BME280_temperature;BME280_humidity;BME280_pressure;Samples;Min_cycle;Max_cycle;Signal;HPM_P1;HPM_P2
2021/06/11 00:00:40;;;;;;;6.06;5.45;;;;;;;;;;338177;159;857383;-60
2021/06/11 00:01:42;;;;;;;7.27;4.84;;;;;;;;;;339243;156;858896;-59
2021/06/11 00:02:43;;;;;;;5.86;5.27;;;;;;;;;;338683;156;864826;-59
2021/06/11 00:03:45;;;;;;;7.52;5.49;;;;;;;;;;338936;156;857363;-59
2021/06/11 00:04:46;;;;;;;6.72;5.64;;;;;;;;;;340389;155;857382;-59
2021/06/11 00:05:48;;;;;;;5.59;4.99;;;;;;;;;;339135;155;857324;-59
2021/06/11 00:06:51;;;;;;;7.70;5.75;;;;;;;;;;340584;155;857549;-59
2021/06/11 00:07:53;;;;;;;8.36;5.29;;;;;;;;;;339561;156;857282;-59
2021/06/11 00:08:55;;;;;;;8.35;5.53;;;;;;;;;;338281;157;864935;-58
2021/06/11 00:09:56;;;;;;;7.09;5.29;;;;;;;;;;338785;155;858123;-58
2021/06/11 00:10:58;;;;;;;8.33;5.73;;;;;;;;;;339847;155;867203;-58
2021/06/11 00:11:59;;;;;;;8.07;5.87;;;;;;;;;;340953;155;866370;-58
2021/06/11 00:13:01;;;;;;;6.81;5.75;;;;;;;;;;337944;154;859479;-57
2021/06/11 00:14:03;;;;;;;7.15;5.61;;;;;;;;;;339097;156;859795;-58
2021/06/11 00:15:05;;;;;;;5.81;5.23;;;;;;;;;;342494;155;857668;-58
2021/06/11 00:16:08;;;;;;;7.31;5.44;;;;;;;;;;342727;155;857246;-59
2021/06/11 00:17:10;;;;;;;6.74;5.54;;;;;;;;;;339145;157;857446;-59
2021/06/11 00:18:11;;;;;;;12.29;6.04;;;;;;;;;;339319;158;865098;-59
2021/06/11 00:19:13;;;;;;;8.04;5.34;;;;;;;;;;338796;156;865251;-59
2021/06/11 00:20:15;;;;;;;7.63;5.51;;;;;;;;;;339633;157;857473;-59
2021/06/11 00:21:16;;;;;;;6.81;5.34;;;;;;;;;;342550;157;857453;-59
2021/06/11 00:22:18;;;;;;;6.86;5.68;;;;;;;;;;340112;155;858049;-59
2021/06/11 00:23:19;;;;;;;7.52;5.46;;;;;;;;;;340363;157;860219;-59
2021/06/11 00:24:21;;;;;;;6.75;5.89;;;;;;;;;;340717;156;858890;-59
2021/06/11 00:25:23;;;;;;;7.74;5.49;;;;;;;;;;339756;156;864898;-59
2021/06/11 00:26:26;;;;;;;6.92;5.74;;;;;;;;;;337938;156;857659;-58
2021/06/11 00:27:28;;;;;;;6.14;5.44;;;;;;;;;;340639;155;857529;-59
2021/06/11 00:28:29;;;;;;;8.54;5.98;;;;;;;;;;342205;155;866081;-58
2021/06/11 00:29:31;;;;;;;8.46;6.08;;;;;;;;;;342566;154;857275;-59
2021/06/11 00:30:35;;;;;;;8.67;5.73;;;;;;;;;;339634;155;864962;-59
2021/06/11 00:31:37;;;;;;;8.60;5.55;;;;;;;;;;339680;155;858269;-59
2021/06/11 00:32:39;;;;;;;9.95;5.99;;;;;;;;;;337764;156;859537;-59
2021/06/11 00:33:40;;;;;;;8.06;5.08;;;;;;;;;;337917;156;857366;-59
2021/06/11 00:34:42;;;;;;;6.76;5.91;;;;;;;;;;339927;155;864817;-59
2021/06/11 00:35:44;;;;;;;7.19;5.39;;;;;;;;;;339669;155;857329;-58
2021/06/11 00:36:46;;;;;;;5.51;4.94;;;;;;;;;;340347;156;858979;-58
2021/06/11 00:37:47;;;;;;;6.56;5.92;;;;;;;;;;344364;155;857427;-58
2021/06/11 00:38:49;;;;;;;9.15;5.51;;;;;;;;;;341604;155;858863;-59
2021/06/11 00:39:51;;;;;;;8.12;5.71;;;;;;;;;;339381;158;859847;-58
2021/06/11 00:40:53;;;;;;;6.62;5.66;;;;;;;;;;339507;158;859260;-58
2021/06/11 00:41:59;;;;;;;9.02;5.89;;;;;;;;;;339669;155;865523;-58
2021/06/11 00:42:58;;;;;;;5.94;5.21;;;;;;;;;;341050;155;858954;-58
2021/06/11 00:43:59;;;;;;;10.00;6.04;;;;;;;;;;345033;155;857423;-58
2021/06/11 00:45:01;;;;;;;8.59;5.11;;;;;;;;;;338826;156;866500;-58
2021/06/11 00:46:03;;;;;;;6.49;5.86;;;;;;;;;;339329;158;864904;-59
2021/06/11 00:47:05;;;;;;;6.78;5.46;;;;;;;;;;335815;155;857819;-59
2021/06/11 00:48:06;;;;;;;9.34;5.35;;;;;;;;;;338408;157;866564;-59
2021/06/11 00:49:08;;;;;;;7.24;5.11;;;;;;;;;;339080;155;858835;-59
2021/06/11 00:50:11;;;;;;;8.09;5.91;;;;;;;;;;339210;156;865553;-59
2021/06/11 00:51:13;;;;;;;6.82;5.41;;;;;;;;;;339125;158;857634;-59
2021/06/11 00:52:15;;;;;;;7.08;4.95;;;;;;;;;;340419;157;858855;-58
2021/06/11 00:53:16;;;;;;;7.71;5.17;;;;;;;;;;338424;157;864967;-59
2021/06/11 00:54:18;;;;;;;6.26;5.66;;;;;;;;;;339468;156;857489;-59
2021/06/11 00:55:19;;;;;;;7.61;5.47;;;;;;;;;;338937;156;857407;-59
2021/06/11 00:56:22;;;;;;;6.37;5.62;;;;;;;;;;339289;157;857459;-59
2021/06/11 00:57:23;;;;;;;6.67;5.40;;;;;;;;;;339483;158;857354;-59
2021/06/11 00:58:25;;;;;;;7.82;5.65;;;;;;;;;;340310;155;857315;-58
2021/06/11 00:59:27;;;;;;;5.79;5.26;;;;;;;;;;342178;155;859310;-59
2021/06/11 01:00:30;;;;;;;6.26;5.36;;;;;;;;;;344628;155;858235;-59
2021/06/11 01:01:32;;;;;;;6.88;5.44;;;;;;;;;;340126;155;857445;-59
2021/06/11 01:02:34;;;;;;;7.42;5.46;;;;;;;;;;339497;156;857312;-59
2021/06/11 01:03:36;;;;;;;10.51;5.84;;;;;;;;;;341219;156;866632;-58
2021/06/11 01:04:37;;;;;;;10.01;5.72;;;;;;;;;;339166;156;859655;-59
2021/06/11 01:05:41;;;;;;;8.11;5.33;;;;;;;;;;339386;158;857377;-59
2021/06/11 01:06:44;;;;;;;6.81;5.16;;;;;;;;;;338899;156;860916;-59
2021/06/11 01:07:46;;;;;;;6.76;5.76;;;;;;;;;;340977;155;865606;-59
2021/06/11 01:08:48;;;;;;;8.61;5.67;;;;;;;;;;340697;156;857502;-58
2021/06/11 01:09:51;;;;;;;6.79;5.18;;;;;;;;;;335672;158;858289;-59
2021/06/11 01:10:53;;;;;;;8.68;4.84;;;;;;;;;;335138;159;858879;-58
2021/06/11 01:11:55;;;;;;;6.01;5.17;;;;;;;;;;340129;156;857149;-60
2021/06/11 01:12:57;;;;;;;6.24;5.52;;;;;;;;;;340255;155;857384;-59
2021/06/11 01:13:58;;;;;;;7.99;5.01;;;;;;;;;;343069;156;859110;-58
2021/06/11 01:15:01;;;;;;;6.23;5.50;;;;;;;;;;339879;155;865520;-59
2021/06/11 01:16:03;;;;;;;7.02;5.73;;;;;;;;;;339380;155;866013;-58
2021/06/11 01:17:04;;;;;;;6.94;4.85;;;;;;;;;;345185;155;865208;-58
2021/06/11 01:18:06;;;;;;;6.27;4.94;;;;;;;;;;339879;156;864885;-59
2021/06/11 01:19:09;;;;;;;5.59;4.91;;;;;;;;;;340685;157;857818;-58
2021/06/11 01:20:12;;;;;;;5.99;5.42;;;;;;;;;;342015;154;858281;-59
2021/06/11 01:21:13;;;;;;;11.32;5.15;;;;;;;;;;339193;157;857962;-59
2021/06/11 01:22:32;;;;;;;6.75;5.29;;;;;;;;;;333751;159;859549;-58
2021/06/11 01:23:52;;;;;;;8.86;4.96;;;;;;;;;;339080;156;865599;-58
2021/06/11 01:25:09;;;;;;;7.56;5.04;;;;;;;;;;335037;159;857396;-58
2021/06/11 01:26:14;;;;;;;6.53;5.31;;;;;;;;;;332444;158;857201;-58
2021/06/11 01:27:16;;;;;;;6.46;5.36;;;;;;;;;;331138;162;858887;-58
2021/06/11 01:28:17;;;;;;;7.55;5.13;;;;;;;;;;339413;156;860386;-58
2021/06/11 01:29:20;;;;;;;5.52;4.76;;;;;;;;;;335771;158;865000;-59
2021/06/11 01:30:23;;;;;;;7.55;5.28;;;;;;;;;;339951;157;857502;-59
2021/06/11 01:31:25;;;;;;;5.83;5.09;;;;;;;;;;336899;157;857357;-58
2021/06/11 01:32:26;;;;;;;7.41;4.85;;;;;;;;;;335175;159;859094;-58
2021/06/11 01:33:29;;;;;;;6.56;4.91;;;;;;;;;;344244;155;865084;-59
2021/06/11 01:34:35;;;;;;;7.18;5.17;;;;;;;;;;340300;154;857930;-58
2021/06/11 01:35:39;;;;;;;7.64;4.97;;;;;;;;;;341714;156;857269;-58
2021/06/11 01:36:43;;;;;;;6.03;4.79;;;;;;;;;;341317;156;857877;-59
2021/06/11 01:37:45;;;;;;;7.02;4.96;;;;;;;;;;338366;155;859017;-58
2021/06/11 01:38:47;;;;;;;6.10;5.09;;;;;;;;;;343537;155;857277;-58
2021/06/11 01:39:53;;;;;;;6.02;4.59;;;;;;;;;;344943;155;867091;-58
2021/06/11 01:40:56;;;;;;;7.22;4.99;;;;;;;;;;339011;157;864700;-58
2021/06/11 01:41:57;;;;;;;5.96;5.31;;;;;;;;;;340834;156;857843;-58
2021/06/11 01:43:01;;;;;;;5.21;4.46;;;;;;;;;;340706;156;859633;-58
2021/06/11 01:44:03;;;;;;;7.62;5.26;;;;;;;;;;339711;156;861491;-59
2021/06/11 01:45:08;;;;;;;6.61;5.19;;;;;;;;;;340159;157;857799;-58
2021/06/11 01:46:09;;;;;;;6.93;5.14;;;;;;;;;;338950;156;858667;-58
2021/06/11 01:47:11;;;;;;;13.74;6.51;;;;;;;;;;339732;156;864856;-58
2021/06/11 01:48:13;;;;;;;6.75;4.93;;;;;;;;;;340107;156;859326;-58
2021/06/11 01:49:15;;;;;;;5.81;5.11;;;;;;;;;;339886;154;858059;-58
2021/06/11 01:50:18;;;;;;;6.20;5.61;;;;;;;;;;342096;156;865094;-58
2021/06/11 01:51:20;;;;;;;5.67;5.00;;;;;;;;;;338150;156;857438;-59
2021/06/11 01:52:22;;;;;;;5.69;4.96;;;;;;;;;;340534;158;857494;-59
2021/06/11 01:53:23;;;;;;;5.56;4.60;;;;;;;;;;340092;157;857348;-59
2021/06/11 01:54:25;;;;;;;5.74;5.13;;;;;;;;;;339281;156;857357;-59
2021/06/11 01:55:29;;;;;;;6.09;5.03;;;;;;;;;;339488;157;864825;-60
2021/06/11 01:56:33;;;;;;;7.23;5.16;;;;;;;;;;339178;156;859331;-58
2021/06/11 01:57:34;;;;;;;6.63;4.78;;;;;;;;;;338979;158;857447;-59
2021/06/11 01:58:36;;;;;;;6.52;5.32;;;;;;;;;;340249;158;861884;-58
2021/06/11 01:59:38;;;;;;;6.18;5.13;;;;;;;;;;334122;156;857424;-58
2021/06/11 02:00:41;;;;;;;6.32;5.42;;;;;;;;;;334628;161;859583;-58
2021/06/11 02:01:43;;;;;;;6.26;5.02;;;;;;;;;;337176;156;864901;-59
2021/06/11 02:02:45;;;;;;;8.74;5.49;;;;;;;;;;340798;155;864908;-59
2021/06/11 02:03:46;;;;;;;6.74;5.10;;;;;;;;;;340199;157;857348;-59
2021/06/11 02:04:48;;;;;;;5.79;5.26;;;;;;;;;;339771;155;859001;-59
2021/06/11 02:05:49;;;;;;;5.68;4.99;;;;;;;;;;338593;157;859074;-59
2021/06/11 02:06:51;;;;;;;6.13;5.19;;;;;;;;;;341983;155;858309;-59
2021/06/11 02:07:53;;;;;;;6.41;4.94;;;;;;;;;;340869;155;858181;-59
2021/06/11 02:08:54;;;;;;;5.82;5.23;;;;;;;;;;334837;160;860306;-59
2021/06/11 02:09:56;;;;;;;5.59;5.04;;;;;;;;;;337623;158;858980;-58
2021/06/11 02:10:57;;;;;;;6.04;5.35;;;;;;;;;;339150;155;857420;-58
2021/06/11 02:12:00;;;;;;;8.48;4.82;;;;;;;;;;343288;155;864858;-57
2021/06/11 02:13:02;;;;;;;5.82;5.20;;;;;;;;;;341796;155;857236;-58
2021/06/11 02:14:03;;;;;;;9.09;5.64;;;;;;;;;;338470;156;857239;-59
2021/06/11 02:15:06;;;;;;;6.31;5.71;;;;;;;;;;339775;156;857144;-59
2021/06/11 02:16:09;;;;;;;7.63;5.61;;;;;;;;;;340347;155;866193;-58
2021/06/11 02:17:11;;;;;;;10.65;5.40;;;;;;;;;;339467;155;857477;-59
2021/06/11 02:18:12;;;;;;;7.20;5.81;;;;;;;;;;340587;157;857604;-58
2021/06/11 02:19:14;;;;;;;6.44;5.36;;;;;;;;;;339252;155;857457;-58
2021/06/11 02:20:18;;;;;;;6.69;5.53;;;;;;;;;;341243;157;858001;-59
2021/06/11 02:21:19;;;;;;;9.98;5.95;;;;;;;;;;340398;156;857389;-58
2021/06/11 02:22:21;;;;;;;6.81;5.60;;;;;;;;;;339388;156;865096;-59
2021/06/11 02:23:22;;;;;;;5.97;5.39;;;;;;;;;;340360;158;857354;-59
2021/06/11 02:24:24;;;;;;;9.01;5.47;;;;;;;;;;340159;154;857470;-58
2021/06/11 02:25:26;;;;;;;7.82;5.49;;;;;;;;;;338494;157;858978;-58
2021/06/11 02:26:30;;;;;;;7.98;5.38;;;;;;;;;;339360;155;858259;-58
2021/06/11 02:27:32;;;;;;;6.09;5.46;;;;;;;;;;339550;154;857273;-59
2021/06/11 02:28:34;;;;;;;6.77;5.52;;;;;;;;;;338549;159;866617;-58
2021/06/11 02:29:35;;;;;;;6.81;5.60;;;;;;;;;;338588;159;858873;-58
2021/06/11 02:30:37;;;;;;;7.18;5.40;;;;;;;;;;339971;158;860200;-58
2021/06/11 02:31:39;;;;;;;9.91;5.27;;;;;;;;;;339673;158;860673;-60
2021/06/11 02:32:41;;;;;;;7.91;5.81;;;;;;;;;;338613;153;859513;-59
2021/06/11 02:33:42;;;;;;;7.14;5.20;;;;;;;;;;340119;158;857329;-59
2021/06/11 02:34:44;;;;;;;6.19;4.84;;;;;;;;;;339317;157;857225;-59
2021/06/11 02:35:45;;;;;;;7.82;5.59;;;;;;;;;;338978;156;857343;-59
2021/06/11 02:36:47;;;;;;;5.96;5.45;;;;;;;;;;339081;156;859255;-59
2021/06/11 02:37:49;;;;;;;6.04;5.40;;;;;;;;;;338872;156;865968;-59
2021/06/11 02:38:51;;;;;;;6.76;5.49;;;;;;;;;;338736;158;858333;-59
2021/06/11 02:39:52;;;;;;;6.36;5.68;;;;;;;;;;339674;157;859540;-60
2021/06/11 02:40:55;;;;;;;9.02;5.73;;;;;;;;;;338798;158;866005;-59
2021/06/11 02:41:59;;;;;;;7.06;5.77;;;;;;;;;;338360;158;859368;-57
2021/06/11 02:43:02;;;;;;;6.59;5.37;;;;;;;;;;339727;158;865379;-58
2021/06/11 02:44:05;;;;;;;8.26;5.84;;;;;;;;;;339636;155;859321;-59
2021/06/11 02:45:08;;;;;;;9.67;5.61;;;;;;;;;;339500;155;857366;-60
2021/06/11 02:46:12;;;;;;;8.26;5.76;;;;;;;;;;338508;156;859495;-58
2021/06/11 02:47:16;;;;;;;7.77;5.88;;;;;;;;;;339510;155;857996;-59
2021/06/11 02:48:19;;;;;;;9.45;5.89;;;;;;;;;;341026;155;859122;-59
2021/06/11 02:49:22;;;;;;;7.97;6.01;;;;;;;;;;346129;155;857850;-59
2021/06/11 02:50:32;;;;;;;8.98;5.68;;;;;;;;;;341243;155;857282;-59
2021/06/11 02:51:36;;;;;;;9.77;6.01;;;;;;;;;;338259;157;860627;-59
2021/06/11 02:52:39;;;;;;;6.63;5.77;;;;;;;;;;339278;156;859599;-59
2021/06/11 02:53:41;;;;;;;7.24;5.88;;;;;;;;;;339175;155;857439;-58
2021/06/11 02:54:43;;;;;;;6.11;5.49;;;;;;;;;;336819;158;857408;-59
2021/06/11 02:55:44;;;;;;;8.06;5.30;;;;;;;;;;339799;155;866118;-60
2021/06/11 02:56:47;;;;;;;7.46;5.66;;;;;;;;;;332799;159;860263;-58
2021/06/11 02:58:00;;;;;;;7.39;5.13;;;;;;;;;;333182;158;864217;-59
2021/06/11 02:59:02;;;;;;;7.04;6.22;;;;;;;;;;338655;155;865371;-60
2021/06/11 03:00:06;;;;;;;7.22;6.17;;;;;;;;;;341039;158;857755;-58
2021/06/11 03:01:07;;;;;;;8.02;5.79;;;;;;;;;;340097;156;859690;-58
2021/06/11 03:02:10;;;;;;;7.05;5.79;;;;;;;;;;341865;155;857347;-58
2021/06/11 03:03:16;;;;;;;7.12;5.69;;;;;;;;;;340053;156;866378;-58
2021/06/11 03:04:18;;;;;;;6.12;5.46;;;;;;;;;;338928;155;857352;-58
2021/06/11 03:05:21;;;;;;;6.22;5.48;;;;;;;;;;340190;156;857388;-58
2021/06/11 03:06:24;;;;;;;8.46;5.59;;;;;;;;;;340214;157;857456;-58
2021/06/11 03:07:29;;;;;;;6.98;5.56;;;;;;;;;;339863;155;859144;-59
2021/06/11 03:08:31;;;;;;;7.52;6.16;;;;;;;;;;340559;155;865074;-58
2021/06/11 03:09:33;;;;;;;6.26;5.36;;;;;;;;;;340180;156;857430;-57
2021/06/11 03:10:36;;;;;;;8.81;5.35;;;;;;;;;;339893;156;857975;-58
2021/06/11 03:11:40;;;;;;;7.10;6.01;;;;;;;;;;340204;158;859594;-58
2021/06/11 03:12:42;;;;;;;6.42;5.77;;;;;;;;;;339314;156;857465;-58
2021/06/11 03:13:43;;;;;;;7.81;6.19;;;;;;;;;;339507;158;857317;-61
2021/06/11 03:14:45;;;;;;;8.39;5.75;;;;;;;;;;341232;155;866756;-61
2021/06/11 03:15:47;;;;;;;6.23;5.63;;;;;;;;;;339749;155;864871;-58
2021/06/11 03:16:49;;;;;;;8.03;5.94;;;;;;;;;;339789;155;857711;-59
2021/06/11 03:17:52;;;;;;;5.98;5.42;;;;;;;;;;345856;155;866941;-60
2021/06/11 03:18:55;;;;;;;7.39;5.55;;;;;;;;;;340210;155;866799;-61
2021/06/11 03:19:57;;;;;;;10.53;5.98;;;;;;;;;;337294;158;857236;-59
2021/06/11 03:21:01;;;;;;;7.72;6.40;;;;;;;;;;339927;155;857338;-61
2021/06/11 03:22:10;;;;;;;6.59;5.86;;;;;;;;;;338875;155;857429;-59
2021/06/11 03:23:13;;;;;;;7.64;5.84;;;;;;;;;;340587;155;861762;-55
2021/06/11 03:24:17;;;;;;;7.26;6.05;;;;;;;;;;339715;155;858019;-58
2021/06/11 03:25:25;;;;;;;6.96;6.03;;;;;;;;;;340163;155;859448;-59
2021/06/11 03:26:29;;;;;;;6.63;5.89;;;;;;;;;;341699;156;857310;-58
2021/06/11 03:27:32;;;;;;;7.11;5.71;;;;;;;;;;339370;156;857367;-58
2021/06/11 03:28:41;;;;;;;7.64;5.69;;;;;;;;;;339458;155;857340;-57
2021/06/11 03:29:44;;;;;;;6.86;5.69;;;;;;;;;;340026;155;857364;-58
2021/06/11 03:30:49;;;;;;;6.93;6.09;;;;;;;;;;337993;156;857365;-59
2021/06/11 03:31:52;;;;;;;6.64;6.04;;;;;;;;;;338893;158;864943;-58
2021/06/11 03:32:59;;;;;;;9.65;6.09;;;;;;;;;;338768;155;858026;-58
2021/06/11 03:34:04;;;;;;;9.41;6.37;;;;;;;;;;339312;156;858037;-59
2021/06/11 03:35:07;;;;;;;8.23;6.01;;;;;;;;;;337549;156;857902;-58
2021/06/11 03:36:12;;;;;;;7.45;5.63;;;;;;;;;;340283;158;858620;-59
2021/06/11 03:37:15;;;;;;;8.70;5.79;;;;;;;;;;338887;156;857680;-57
2021/06/11 03:38:18;;;;;;;7.91;6.42;;;;;;;;;;338263;158;857535;-59
2021/06/11 03:39:21;;;;;;;7.41;5.47;;;;;;;;;;340251;156;857397;-59
2021/06/11 03:40:28;;;;;;;7.52;6.18;;;;;;;;;;337310;158;859155;-58
2021/06/11 03:41:29;;;;;;;7.46;6.06;;;;;;;;;;337991;157;857332;-59
2021/06/11 03:42:31;;;;;;;7.32;5.99;;;;;;;;;;338792;155;857854;-58
2021/06/11 03:43:33;;;;;;;6.71;5.84;;;;;;;;;;339325;156;857491;-60
2021/06/11 03:44:34;;;;;;;6.32;5.72;;;;;;;;;;344063;155;858613;-58
2021/06/11 03:45:36;;;;;;;6.56;5.96;;;;;;;;;;340575;155;857284;-56
2021/06/11 03:46:40;;;;;;;6.76;6.03;;;;;;;;;;338572;156;857488;-59
2021/06/11 03:47:41;;;;;;;6.99;5.61;;;;;;;;;;339302;155;860241;-57
2021/06/11 03:48:44;;;;;;;7.69;6.59;;;;;;;;;;339524;155;857666;-59
2021/06/11 03:49:45;;;;;;;7.66;6.02;;;;;;;;;;342981;155;857274;-59
2021/06/11 03:50:48;;;;;;;7.02;5.91;;;;;;;;;;342588;153;866270;-58
2021/06/11 03:51:50;;;;;;;6.73;5.77;;;;;;;;;;339650;156;857342;-57
2021/06/11 03:52:53;;;;;;;7.17;6.02;;;;;;;;;;331322;159;857352;-59
2021/06/11 03:53:55;;;;;;;8.72;5.82;;;;;;;;;;327654;161;857360;-58
2021/06/11 03:54:58;;;;;;;8.09;6.19;;;;;;;;;;327907;161;858279;-57
2021/06/11 03:56:02;;;;;;;9.12;6.32;;;;;;;;;;320648;166;857437;-59
2021/06/11 03:57:04;;;;;;;7.20;5.87;;;;;;;;;;329037;160;857957;-57
2021/06/11 03:58:07;;;;;;;8.31;5.95;;;;;;;;;;328624;161;857447;-57
2021/06/11 03:59:09;;;;;;;6.55;5.84;;;;;;;;;;327828;164;858198;-60
2021/06/11 04:00:12;;;;;;;8.89;6.59;;;;;;;;;;329422;160;857329;-60
2021/06/11 04:01:15;;;;;;;6.79;5.55;;;;;;;;;;330606;160;866076;-61
2021/06/11 04:02:17;;;;;;;9.45;5.84;;;;;;;;;;329755;160;857393;-57
2021/06/11 04:03:18;;;;;;;8.74;5.86;;;;;;;;;;328424;160;857381;-60
2021/06/11 04:04:20;;;;;;;6.84;6.14;;;;;;;;;;329435;160;866050;-60
2021/06/11 04:05:21;;;;;;;8.01;6.74;;;;;;;;;;328672;163;859495;-59
2021/06/11 04:06:25;;;;;;;6.94;5.96;;;;;;;;;;327058;162;859234;-59
2021/06/11 04:07:35;;;;;;;8.11;6.23;;;;;;;;;;327398;163;857390;-59
2021/06/11 04:08:37;;;;;;;7.39;6.18;;;;;;;;;;326295;164;857796;-58
2021/06/11 04:09:45;;;;;;;9.09;6.17;;;;;;;;;;328182;162;858046;-59
2021/06/11 04:10:55;;;;;;;8.25;6.06;;;;;;;;;;320758;163;867027;-60
2021/06/11 04:12:02;;;;;;;8.99;6.51;;;;;;;;;;329676;160;857491;-58
2021/06/11 04:13:06;;;;;;;9.66;6.23;;;;;;;;;;323205;164;858868;-57
2021/06/11 04:14:07;;;;;;;8.47;6.22;;;;;;;;;;323028;165;857500;-58
2021/06/11 04:15:10;;;;;;;9.65;6.27;;;;;;;;;;330427;160;857827;-63
2021/06/11 04:16:19;;;;;;;7.58;6.45;;;;;;;;;;327183;163;866065;-56
2021/06/11 04:17:24;;;;;;;11.81;6.36;;;;;;;;;;329765;160;857395;-58
2021/06/11 04:18:28;;;;;;;7.15;6.13;;;;;;;;;;330990;160;857253;-59
2021/06/11 04:19:31;;;;;;;8.07;6.34;;;;;;;;;;329231;163;859066;-65
2021/06/11 04:20:34;;;;;;;7.52;6.16;;;;;;;;;;329404;160;865060;-66
2021/06/11 04:21:35;;;;;;;10.31;6.15;;;;;;;;;;330839;160;857340;-62
2021/06/11 04:22:38;;;;;;;7.28;6.53;;;;;;;;;;329609;162;857838;-61
2021/06/11 04:23:41;;;;;;;7.74;6.09;;;;;;;;;;328941;160;859281;-59
2021/06/11 04:24:43;;;;;;;7.29;5.85;;;;;;;;;;332890;159;857374;-58
2021/06/11 04:25:44;;;;;;;8.88;6.79;;;;;;;;;;334001;159;866078;-59
2021/06/11 04:26:46;;;;;;;10.73;6.37;;;;;;;;;;335551;158;857562;-59
2021/06/11 04:27:49;;;;;;;7.26;6.19;;;;;;;;;;333328;158;858214;-59
2021/06/11 04:28:51;;;;;;;8.09;5.87;;;;;;;;;;333333;158;859162;-59
2021/06/11 04:29:53;;;;;;;9.23;6.69;;;;;;;;;;334554;159;858112;-59
2021/06/11 04:30:55;;;;;;;10.08;6.75;;;;;;;;;;337255;158;859992;-59
2021/06/11 04:31:57;;;;;;;8.27;6.54;;;;;;;;;;333656;157;858838;-58
2021/06/11 04:32:58;;;;;;;10.38;6.26;;;;;;;;;;337308;158;865237;-57
2021/06/11 04:34:00;;;;;;;8.99;6.13;;;;;;;;;;334917;158;865099;-59
2021/06/11 04:35:01;;;;;;;7.83;6.24;;;;;;;;;;334759;158;857353;-60
2021/06/11 04:36:03;;;;;;;6.83;6.10;;;;;;;;;;334556;158;857241;-58
2021/06/11 04:37:05;;;;;;;7.81;6.48;;;;;;;;;;335137;158;864801;-59
2021/06/11 04:38:07;;;;;;;9.09;6.49;;;;;;;;;;336122;158;857325;-60
2021/06/11 04:39:08;;;;;;;7.59;6.31;;;;;;;;;;335531;159;857433;-59
2021/06/11 04:40:10;;;;;;;10.13;6.51;;;;;;;;;;335562;159;857809;-60
2021/06/11 04:41:12;;;;;;;7.39;6.18;;;;;;;;;;334113;158;867465;-59
2021/06/11 04:42:13;;;;;;;9.00;5.96;;;;;;;;;;336056;159;865624;-60
2021/06/11 04:43:15;;;;;;;10.15;6.28;;;;;;;;;;334432;160;857514;-59
2021/06/11 04:44:17;;;;;;;7.34;6.10;;;;;;;;;;334819;157;865706;-59
2021/06/11 04:45:18;;;;;;;6.66;5.96;;;;;;;;;;335005;160;866689;-61
2021/06/11 04:46:20;;;;;;;6.27;5.13;;;;;;;;;;335166;158;856496;-58
2021/06/11 04:47:22;;;;;;;6.88;6.18;;;;;;;;;;335907;159;858726;-59
2021/06/11 04:48:23;;;;;;;6.71;6.01;;;;;;;;;;329595;162;859176;-59
2021/06/11 04:49:25;;;;;;;6.62;5.70;;;;;;;;;;329584;162;857307;-58
2021/06/11 04:50:27;;;;;;;8.56;6.29;;;;;;;;;;325756;162;866698;-59
2021/06/11 04:51:28;;;;;;;8.76;6.40;;;;;;;;;;324637;163;866864;-60
2021/06/11 04:52:30;;;;;;;7.16;6.41;;;;;;;;;;329475;161;866013;-59
2021/06/11 04:53:31;;;;;;;8.91;6.04;;;;;;;;;;333746;157;857463;-59
2021/06/11 04:54:33;;;;;;;6.89;6.21;;;;;;;;;;339350;155;858962;-58
2021/06/11 04:55:35;;;;;;;9.50;6.47;;;;;;;;;;338883;155;861091;-60
2021/06/11 04:56:37;;;;;;;6.09;5.47;;;;;;;;;;340723;155;857443;-59
2021/06/11 04:57:38;;;;;;;7.06;5.93;;;;;;;;;;339011;156;857510;-59
2021/06/11 04:58:40;;;;;;;8.25;6.12;;;;;;;;;;338762;157;859590;-59
2021/06/11 04:59:42;;;;;;;8.33;6.36;;;;;;;;;;333817;159;858816;-58
2021/06/11 05:00:45;;;;;;;11.58;6.62;;;;;;;;;;340743;156;859039;-58
2021/06/11 05:01:47;;;;;;;10.63;6.20;;;;;;;;;;339829;155;866851;-59
2021/06/11 05:02:49;;;;;;;8.19;6.23;;;;;;;;;;340885;155;857124;-59
2021/06/11 05:03:50;;;;;;;12.39;6.58;;;;;;;;;;343749;155;859475;-58
2021/06/11 05:04:52;;;;;;;7.60;6.66;;;;;;;;;;339153;155;858780;-59
2021/06/11 05:05:53;;;;;;;9.47;6.40;;;;;;;;;;339007;158;859361;-59
2021/06/11 05:06:56;;;;;;;9.29;6.45;;;;;;;;;;339678;155;859514;-58
2021/06/11 05:07:58;;;;;;;9.12;6.45;;;;;;;;;;339389;155;859254;-60
2021/06/11 05:09:00;;;;;;;8.37;6.43;;;;;;;;;;340331;155;859537;-60
2021/06/11 05:10:04;;;;;;;7.87;6.33;;;;;;;;;;339517;156;858168;-59
2021/06/11 05:11:06;;;;;;;8.00;6.56;;;;;;;;;;339356;155;857365;-59
2021/06/11 05:12:08;;;;;;;9.56;6.91;;;;;;;;;;339545;156;857450;-59
2021/06/11 05:13:10;;;;;;;12.66;6.83;;;;;;;;;;339829;155;857427;-60
2021/06/11 05:14:11;;;;;;;7.89;6.63;;;;;;;;;;339965;155;858886;-59
2021/06/11 05:15:13;;;;;;;7.29;6.50;;;;;;;;;;339017;155;865079;-58
2021/06/11 05:16:15;;;;;;;11.48;7.11;;;;;;;;;;338795;157;857909;-58
2021/06/11 05:17:17;;;;;;;10.53;6.61;;;;;;;;;;338955;158;866287;-58
2021/06/11 05:18:19;;;;;;;8.55;6.84;;;;;;;;;;338920;156;857499;-58
2021/06/11 05:19:20;;;;;;;9.95;7.49;;;;;;;;;;338773;158;857471;-58
2021/06/11 05:20:23;;;;;;;8.33;6.81;;;;;;;;;;339220;158;857465;-58
2021/06/11 05:21:24;;;;;;;10.73;7.36;;;;;;;;;;338575;155;857277;-59
2021/06/11 05:22:26;;;;;;;10.77;6.99;;;;;;;;;;338497;156;859065;-58
2021/06/11 05:23:27;;;;;;;8.06;6.46;;;;;;;;;;339633;158;858246;-59
2021/06/11 05:24:29;;;;;;;10.58;6.88;;;;;;;;;;339388;156;859283;-58
2021/06/11 05:25:31;;;;;;;8.48;6.53;;;;;;;;;;342105;155;859982;-59
2021/06/11 05:26:33;;;;;;;9.07;6.77;;;;;;;;;;340333;155;859331;-59
2021/06/11 05:27:34;;;;;;;8.38;6.53;;;;;;;;;;339304;155;859058;-57
2021/06/11 05:28:36;;;;;;;7.66;6.89;;;;;;;;;;340770;154;858737;-59
2021/06/11 05:29:37;;;;;;;9.14;6.84;;;;;;;;;;339359;155;859731;-59
2021/06/11 05:30:41;;;;;;;9.91;6.69;;;;;;;;;;338916;156;859674;-58
2021/06/11 05:31:42;;;;;;;9.29;6.51;;;;;;;;;;342330;156;857836;-59
2021/06/11 05:32:45;;;;;;;7.72;6.56;;;;;;;;;;338844;156;866080;-59
2021/06/11 05:33:46;;;;;;;9.61;6.57;;;;;;;;;;339132;157;859617;-59
2021/06/11 05:34:48;;;;;;;8.55;6.44;;;;;;;;;;342540;155;859321;-60
2021/06/11 05:35:49;;;;;;;7.94;6.34;;;;;;;;;;339112;156;857500;-59
2021/06/11 05:36:51;;;;;;;7.31;6.55;;;;;;;;;;338539;157;857479;-59
2021/06/11 05:37:56;;;;;;;8.46;6.46;;;;;;;;;;341402;155;857220;-59
2021/06/11 05:38:57;;;;;;;10.99;5.86;;;;;;;;;;340818;155;857385;-59
2021/06/11 05:39:58;;;;;;;8.66;6.30;;;;;;;;;;339114;158;859229;-60
2021/06/11 05:41:02;;;;;;;8.02;6.57;;;;;;;;;;334950;159;865079;-59
2021/06/11 05:42:04;;;;;;;7.76;6.11;;;;;;;;;;338511;156;859345;-60
2021/06/11 05:43:06;;;;;;;7.65;6.38;;;;;;;;;;333142;159;857356;-60
2021/06/11 05:44:07;;;;;;;6.23;5.70;;;;;;;;;;339389;158;858929;-63
2021/06/11 05:45:09;;;;;;;8.57;6.10;;;;;;;;;;339874;156;857256;-61
2021/06/11 05:46:13;;;;;;;7.13;5.92;;;;;;;;;;338135;156;857418;-61
2021/06/11 05:47:14;;;;;;;7.09;5.85;;;;;;;;;;340738;156;858083;-61
2021/06/11 05:48:16;;;;;;;7.16;5.99;;;;;;;;;;338838;157;857465;-61
2021/06/11 05:49:17;;;;;;;7.20;6.10;;;;;;;;;;339282;158;857805;-61
2021/06/11 05:50:19;;;;;;;7.46;6.59;;;;;;;;;;339694;156;857892;-61
2021/06/11 05:51:21;;;;;;;7.17;6.36;;;;;;;;;;338528;157;866961;-61
2021/06/11 05:52:22;;;;;;;8.29;6.54;;;;;;;;;;339979;157;859384;-60
2021/06/11 05:53:24;;;;;;;6.74;6.06;;;;;;;;;;341176;156;857918;-61
2021/06/11 05:54:25;;;;;;;9.24;6.10;;;;;;;;;;338745;157;859334;-60
2021/06/11 05:55:27;;;;;;;7.95;5.89;;;;;;;;;;339356;158;860631;-60
2021/06/11 05:56:30;;;;;;;7.33;6.21;;;;;;;;;;339462;154;859084;-61
2021/06/11 05:57:32;;;;;;;6.39;5.57;;;;;;;;;;341679;155;857982;-60
2021/06/11 05:58:34;;;;;;;9.12;6.00;;;;;;;;;;340788;156;858837;-60
2021/06/11 05:59:35;;;;;;;8.79;6.15;;;;;;;;;;340510;155;857376;-60
2021/06/11 06:00:38;;;;;;;11.41;5.96;;;;;;;;;;340641;156;859262;-60
2021/06/11 06:01:39;;;;;;;6.37;5.77;;;;;;;;;;340796;155;859210;-60
2021/06/11 06:02:41;;;;;;;6.61;5.96;;;;;;;;;;340221;155;857456;-60
2021/06/11 06:03:42;;;;;;;8.32;6.11;;;;;;;;;;343310;155;857360;-60
2021/06/11 06:04:44;;;;;;;8.56;6.05;;;;;;;;;;340841;155;857483;-60
2021/06/11 06:05:45;;;;;;;6.60;5.74;;;;;;;;;;339010;157;857393;-60
2021/06/11 06:06:47;;;;;;;9.73;6.43;;;;;;;;;;339439;158;859011;-60
2021/06/11 06:07:49;;;;;;;6.54;5.73;;;;;;;;;;336570;156;857425;-60
2021/06/11 06:08:50;;;;;;;7.91;5.23;;;;;;;;;;339179;157;859098;-60